sensor_id;sensor_type;location;lat;lon;timestamp;temperature;humidity
68251;DHT22;55066;51.560;4.642;2022-11-10T00:00:52;8.81;99.99
68251;DHT22;55066;51.560;4.642;2022-11-10T00:03:37;8.86;99.99
68251;DHT22;55066;51.560;4.642;2022-11-10T00:06:21;8.79;99.99
68251;DHT22;55066;51.560;4.642;2022-11-10T00:09:05;8.84;99.99
68251;DHT22;55066;51.560;4.642;2022-11-10T00:11:50;8.91;99.99
68251;DHT22;55066;51.560;4.642;2022-11-10T00:14:34;8.89;99.99
68251;DHT22;55066;51.560;4.642;2022-11-10T00:17:36;8.90;99.99
68251;DHT22;55066;51.560;4.642;2022-11-10T00:20:21;8.96;99.99
68251;DHT22;55066;51.560;4.642;2022-11-10T00:23:05;8.94;99.99
68251;DHT22;55066;51.560;4.642;2022-11-10T00:25:49;8.97;99.99
68251;DHT22;55066;51.560;4.642;2022-11-10T00:28:33;9.04;99.99
68251;DHT22;55066;51.560;4.642;2022-11-10T00:31:16;9.07;99.99
68251;DHT22;55066;51.560;4.642;2022-11-10T00:34:00;9.06;99.99
68251;DHT22;55066;51.560;4.642;2022-11-10T00:36:44;8.96;99.99
68251;DHT22;55066;51.560;4.642;2022-11-10T00:39:28;9.06;99.99
68251;DHT22;55066;51.560;4.642;2022-11-10T00:42:12;9.03;99.99
68251;DHT22;55066;51.560;4.642;2022-11-10T00:44:56;9.06;99.99
68251;DHT22;55066;51.560;4.642;2022-11-10T00:47:40;9.06;99.99
68251;DHT22;55066;51.560;4.642;2022-11-10T00:50:24;8.99;99.99
68251;DHT22;55066;51.560;4.642;2022-11-10T00:53:08;8.97;99.99
68251;DHT22;55066;51.560;4.642;2022-11-10T00:55:52;9.00;99.99
68251;DHT22;55066;51.560;4.642;2022-11-10T00:58:36;8.99;99.99
68251;DHT22;55066;51.560;4.642;2022-11-10T01:01:21;8.97;99.99
68251;DHT22;55066;51.560;4.642;2022-11-10T01:04:07;8.99;99.99
68251;DHT22;55066;51.560;4.642;2022-11-10T01:06:51;8.91;99.99
68251;DHT22;55066;51.560;4.642;2022-11-10T01:09:35;8.99;99.99
68251;DHT22;55066;51.560;4.642;2022-11-10T01:12:19;9.07;99.99
68251;DHT22;55066;51.560;4.642;2022-11-10T01:15:04;9.00;99.99
68251;DHT22;55066;51.560;4.642;2022-11-10T01:17:48;8.97;99.99
68251;DHT22;55066;51.560;4.642;2022-11-10T01:20:33;8.96;99.99
68251;DHT22;55066;51.560;4.642;2022-11-10T01:23:17;9.06;99.99
68251;DHT22;55066;51.560;4.642;2022-11-10T01:26:04;9.20;99.99
68251;DHT22;55066;51.560;4.642;2022-11-10T01:28:48;9.18;99.99
68251;DHT22;55066;51.560;4.642;2022-11-10T01:31:32;9.07;99.99
68251;DHT22;55066;51.560;4.642;2022-11-10T01:34:16;9.13;99.99
68251;DHT22;55066;51.560;4.642;2022-11-10T01:37:00;9.08;99.99
68251;DHT22;55066;51.560;4.642;2022-11-10T01:39:44;8.99;99.99
68251;DHT22;55066;51.560;4.642;2022-11-10T01:42:41;8.97;99.99
68251;DHT22;55066;51.560;4.642;2022-11-10T01:48:16;9.04;99.99
68251;DHT22;55066;51.560;4.642;2022-11-10T01:51:07;9.03;99.99
68251;DHT22;55066;51.560;4.642;2022-11-10T01:53:56;9.16;99.99
68251;DHT22;55066;51.560;4.642;2022-11-10T01:56:45;9.13;99.99
68251;DHT22;55066;51.560;4.642;2022-11-10T01:59:33;9.03;99.99
68251;DHT22;55066;51.560;4.642;2022-11-10T02:02:23;9.01;99.99
68251;DHT22;55066;51.560;4.642;2022-11-10T02:05:08;9.13;99.99
68251;DHT22;55066;51.560;4.642;2022-11-10T02:07:53;9.06;99.99
68251;DHT22;55066;51.560;4.642;2022-11-10T02:10:38;8.96;99.99
68251;DHT22;55066;51.560;4.642;2022-11-10T02:13:22;9.06;99.99
68251;DHT22;55066;51.560;4.642;2022-11-10T02:16:06;9.00;99.99
68251;DHT22;55066;51.560;4.642;2022-11-10T02:18:50;9.01;99.99
68251;DHT22;55066;51.560;4.642;2022-11-10T02:21:38;9.06;99.99
68251;DHT22;55066;51.560;4.642;2022-11-10T02:24:22;9.08;99.99
68251;DHT22;55066;51.560;4.642;2022-11-10T02:27:05;8.93;99.99
68251;DHT22;55066;51.560;4.642;2022-11-10T02:29:49;8.81;99.99
68251;DHT22;55066;51.560;4.642;2022-11-10T02:32:33;8.76;99.99
68251;DHT22;55066;51.560;4.642;2022-11-10T02:35:17;8.84;99.99
68251;DHT22;55066;51.560;4.642;2022-11-10T02:38:02;8.83;99.99
68251;DHT22;55066;51.560;4.642;2022-11-10T02:40:47;8.99;99.99
68251;DHT22;55066;51.560;4.642;2022-11-10T02:43:31;8.91;99.99
68251;DHT22;55066;51.560;4.642;2022-11-10T02:46:16;9.00;99.99
68251;DHT22;55066;51.560;4.642;2022-11-10T02:49:00;8.89;99.99
68251;DHT22;55066;51.560;4.642;2022-11-10T02:51:44;8.87;99.99
68251;DHT22;55066;51.560;4.642;2022-11-10T02:54:28;8.86;99.99
68251;DHT22;55066;51.560;4.642;2022-11-10T02:57:12;8.84;99.99
68251;DHT22;55066;51.560;4.642;2022-11-10T02:59:56;8.73;99.99
68251;DHT22;55066;51.560;4.642;2022-11-10T03:02:40;8.70;99.99
68251;DHT22;55066;51.560;4.642;2022-11-10T03:05:24;8.55;99.99
68251;DHT22;55066;51.560;4.642;2022-11-10T03:08:08;8.53;99.99
68251;DHT22;55066;51.560;4.642;2022-11-10T03:10:53;8.56;99.99
68251;DHT22;55066;51.560;4.642;2022-11-10T03:13:37;8.55;99.99
68251;DHT22;55066;51.560;4.642;2022-11-10T03:16:21;8.46;99.99
68251;DHT22;55066;51.560;4.642;2022-11-10T03:19:05;8.44;99.99
68251;DHT22;55066;51.560;4.642;2022-11-10T03:21:49;8.38;99.99
68251;DHT22;55066;51.560;4.642;2022-11-10T03:24:33;8.45;99.99
68251;DHT22;55066;51.560;4.642;2022-11-10T03:27:17;8.48;99.99
68251;DHT22;55066;51.560;4.642;2022-11-10T03:30:01;8.42;99.99
68251;DHT22;55066;51.560;4.642;2022-11-10T03:32:45;8.46;99.99
68251;DHT22;55066;51.560;4.642;2022-11-10T03:35:29;8.44;99.99
68251;DHT22;55066;51.560;4.642;2022-11-10T03:38:13;8.48;99.99
68251;DHT22;55066;51.560;4.642;2022-11-10T03:40:57;8.58;99.99
68251;DHT22;55066;51.560;4.642;2022-11-10T03:43:41;8.56;99.99
68251;DHT22;55066;51.560;4.642;2022-11-10T03:46:25;8.52;99.99
68251;DHT22;55066;51.560;4.642;2022-11-10T03:49:09;8.38;99.99
68251;DHT22;55066;51.560;4.642;2022-11-10T03:51:53;8.41;99.99
68251;DHT22;55066;51.560;4.642;2022-11-10T03:54:37;8.44;99.99
68251;DHT22;55066;51.560;4.642;2022-11-10T03:57:21;8.59;99.99
68251;DHT22;55066;51.560;4.642;2022-11-10T04:00:06;8.52;99.99
68251;DHT22;55066;51.560;4.642;2022-11-10T04:02:50;8.55;99.99
68251;DHT22;55066;51.560;4.642;2022-11-10T04:05:34;8.52;99.99
68251;DHT22;55066;51.560;4.642;2022-11-10T04:08:37;8.51;99.99
68251;DHT22;55066;51.560;4.642;2022-11-10T04:11:40;8.48;99.99
68251;DHT22;55066;51.560;4.642;2022-11-10T04:14:43;8.48;99.99
68251;DHT22;55066;51.560;4.642;2022-11-10T04:17:49;8.59;99.99
68251;DHT22;55066;51.560;4.642;2022-11-10T04:20:33;8.58;99.99
68251;DHT22;55066;51.560;4.642;2022-11-10T04:23:18;8.52;99.99
68251;DHT22;55066;51.560;4.642;2022-11-10T04:26:12;8.44;99.99
68251;DHT22;55066;51.560;4.642;2022-11-10T04:29:12;8.28;99.99
68251;DHT22;55066;51.560;4.642;2022-11-10T04:31:56;8.27;99.99
68251;DHT22;55066;51.560;4.642;2022-11-10T04:34:40;8.20;99.99
68251;DHT22;55066;51.560;4.642;2022-11-10T04:37:24;8.14;99.99
68251;DHT22;55066;51.560;4.642;2022-11-10T04:40:08;8.20;99.99
68251;DHT22;55066;51.560;4.642;2022-11-10T04:42:52;8.25;99.99
68251;DHT22;55066;51.560;4.642;2022-11-10T04:45:36;8.13;99.99
68251;DHT22;55066;51.560;4.642;2022-11-10T04:48:21;8.13;99.99
68251;DHT22;55066;51.560;4.642;2022-11-10T04:51:05;8.01;99.99
68251;DHT22;55066;51.560;4.642;2022-11-10T04:53:50;8.00;99.99
68251;DHT22;55066;51.560;4.642;2022-11-10T04:56:33;8.05;99.99
68251;DHT22;55066;51.560;4.642;2022-11-10T04:59:17;8.14;99.99
68251;DHT22;55066;51.560;4.642;2022-11-10T05:02:01;7.98;99.99
68251;DHT22;55066;51.560;4.642;2022-11-10T05:04:45;7.98;99.99
68251;DHT22;55066;51.560;4.642;2022-11-10T05:07:29;7.97;99.99
68251;DHT22;55066;51.560;4.642;2022-11-10T05:10:14;8.01;99.99
68251;DHT22;55066;51.560;4.642;2022-11-10T05:12:58;7.91;99.99
68251;DHT22;55066;51.560;4.642;2022-11-10T05:15:42;7.94;99.99
68251;DHT22;55066;51.560;4.642;2022-11-10T05:18:25;8.10;99.99
68251;DHT22;55066;51.560;4.642;2022-11-10T05:21:09;8.10;99.99
68251;DHT22;55066;51.560;4.642;2022-11-10T05:23:53;8.13;99.99
68251;DHT22;55066;51.560;4.642;2022-11-10T05:26:37;8.14;99.99
68251;DHT22;55066;51.560;4.642;2022-11-10T05:29:21;8.08;99.99
68251;DHT22;55066;51.560;4.642;2022-11-10T05:32:05;8.10;99.99
68251;DHT22;55066;51.560;4.642;2022-11-10T05:34:49;8.10;99.99
68251;DHT22;55066;51.560;4.642;2022-11-10T05:37:33;8.18;99.99
68251;DHT22;55066;51.560;4.642;2022-11-10T05:40:17;8.01;99.99
68251;DHT22;55066;51.560;4.642;2022-11-10T05:43:01;8.00;99.99
68251;DHT22;55066;51.560;4.642;2022-11-10T05:45:45;8.13;99.99
68251;DHT22;55066;51.560;4.642;2022-11-10T05:48:29;8.05;99.99
68251;DHT22;55066;51.560;4.642;2022-11-10T05:51:13;8.11;99.99
68251;DHT22;55066;51.560;4.642;2022-11-10T05:53:57;8.03;99.99
68251;DHT22;55066;51.560;4.642;2022-11-10T05:56:41;8.11;99.99
68251;DHT22;55066;51.560;4.642;2022-11-10T05:59:25;8.07;99.99
68251;DHT22;55066;51.560;4.642;2022-11-10T06:02:10;8.00;99.99
68251;DHT22;55066;51.560;4.642;2022-11-10T06:04:54;8.17;99.99
68251;DHT22;55066;51.560;4.642;2022-11-10T06:07:39;8.17;99.99
68251;DHT22;55066;51.560;4.642;2022-11-10T06:10:24;8.34;99.99
68251;DHT22;55066;51.560;4.642;2022-11-10T06:13:08;8.40;99.99
68251;DHT22;55066;51.560;4.642;2022-11-10T06:15:53;8.42;99.99
68251;DHT22;55066;51.560;4.642;2022-11-10T06:18:37;8.59;99.99
68251;DHT22;55066;51.560;4.642;2022-11-10T06:21:21;8.65;99.99
68251;DHT22;55066;51.560;4.642;2022-11-10T06:24:05;8.59;99.99
68251;DHT22;55066;51.560;4.642;2022-11-10T06:26:49;8.58;99.99
68251;DHT22;55066;51.560;4.642;2022-11-10T06:29:33;8.55;99.99
68251;DHT22;55066;51.560;4.642;2022-11-10T06:32:17;8.51;99.99
68251;DHT22;55066;51.560;4.642;2022-11-10T06:35:01;8.53;99.99
68251;DHT22;55066;51.560;4.642;2022-11-10T06:37:59;8.42;99.99
68251;DHT22;55066;51.560;4.642;2022-11-10T06:40:43;8.41;99.99
68251;DHT22;55066;51.560;4.642;2022-11-10T06:43:27;8.44;99.99
68251;DHT22;55066;51.560;4.642;2022-11-10T06:46:11;8.38;99.99
68251;DHT22;55066;51.560;4.642;2022-11-10T06:48:55;8.25;99.99
68251;DHT22;55066;51.560;4.642;2022-11-10T06:51:39;8.23;99.99
68251;DHT22;55066;51.560;4.642;2022-11-10T06:54:23;8.35;99.99
68251;DHT22;55066;51.560;4.642;2022-11-10T06:57:07;8.28;99.99
68251;DHT22;55066;51.560;4.642;2022-11-10T06:59:52;8.25;99.99
68251;DHT22;55066;51.560;4.642;2022-11-10T07:02:37;8.34;99.99
68251;DHT22;55066;51.560;4.642;2022-11-10T07:05:21;8.40;99.99
68251;DHT22;55066;51.560;4.642;2022-11-10T07:08:13;8.38;99.99
68251;DHT22;55066;51.560;4.642;2022-11-10T07:10:58;8.30;99.99
68251;DHT22;55066;51.560;4.642;2022-11-10T07:13:42;8.46;99.99
68251;DHT22;55066;51.560;4.642;2022-11-10T07:16:26;8.46;99.99
68251;DHT22;55066;51.560;4.642;2022-11-10T07:19:10;8.51;99.99
68251;DHT22;55066;51.560;4.642;2022-11-10T07:21:54;8.49;99.99
68251;DHT22;55066;51.560;4.642;2022-11-10T07:24:38;8.44;99.99
68251;DHT22;55066;51.560;4.642;2022-11-10T07:27:22;8.52;99.99
68251;DHT22;55066;51.560;4.642;2022-11-10T07:30:06;8.59;99.99
68251;DHT22;55066;51.560;4.642;2022-11-10T07:35:42;8.63;99.99
68251;DHT22;55066;51.560;4.642;2022-11-10T07:38:26;8.68;99.99
68251;DHT22;55066;51.560;4.642;2022-11-10T07:41:12;8.90;99.99
68251;DHT22;55066;51.560;4.642;2022-11-10T07:43:56;9.04;99.99
68251;DHT22;55066;51.560;4.642;2022-11-10T07:46:40;8.97;99.99
68251;DHT22;55066;51.560;4.642;2022-11-10T07:49:24;8.99;99.99
68251;DHT22;55066;51.560;4.642;2022-11-10T07:52:08;9.06;99.99
68251;DHT22;55066;51.560;4.642;2022-11-10T07:54:52;9.10;99.99
68251;DHT22;55066;51.560;4.642;2022-11-10T07:57:36;9.13;99.99
68251;DHT22;55066;51.560;4.642;2022-11-10T08:00:20;9.17;99.99
68251;DHT22;55066;51.560;4.642;2022-11-10T08:03:06;9.21;99.99
68251;DHT22;55066;51.560;4.642;2022-11-10T08:05:50;9.23;99.99
68251;DHT22;55066;51.560;4.642;2022-11-10T08:08:34;9.41;99.99
68251;DHT22;55066;51.560;4.642;2022-11-10T08:11:18;9.49;99.99
68251;DHT22;55066;51.560;4.642;2022-11-10T08:14:02;9.45;99.99
68251;DHT22;55066;51.560;4.642;2022-11-10T08:16:46;9.51;99.99
68251;DHT22;55066;51.560;4.642;2022-11-10T08:19:30;9.52;99.99
68251;DHT22;55066;51.560;4.642;2022-11-10T08:22:14;9.66;99.99
68251;DHT22;55066;51.560;4.642;2022-11-10T08:24:58;9.66;99.99
68251;DHT22;55066;51.560;4.642;2022-11-10T08:27:42;9.81;99.99
68251;DHT22;55066;51.560;4.642;2022-11-10T08:30:26;9.86;99.99
68251;DHT22;55066;51.560;4.642;2022-11-10T08:33:12;9.92;99.99
68251;DHT22;55066;51.560;4.642;2022-11-10T08:35:59;9.97;99.99
68251;DHT22;55066;51.560;4.642;2022-11-10T08:38:43;10.16;99.99
68251;DHT22;55066;51.560;4.642;2022-11-10T08:41:27;10.20;99.99
68251;DHT22;55066;51.560;4.642;2022-11-10T08:44:12;10.30;99.99
68251;DHT22;55066;51.560;4.642;2022-11-10T08:46:56;10.30;99.99
68251;DHT22;55066;51.560;4.642;2022-11-10T08:49:40;10.42;99.99
68251;DHT22;55066;51.560;4.642;2022-11-10T08:52:24;10.47;99.99
68251;DHT22;55066;51.560;4.642;2022-11-10T08:55:08;10.48;99.99
68251;DHT22;55066;51.560;4.642;2022-11-10T08:57:57;10.54;99.99
68251;DHT22;55066;51.560;4.642;2022-11-10T09:00:42;10.55;99.99
68251;DHT22;55066;51.560;4.642;2022-11-10T09:03:26;10.64;99.99
68251;DHT22;55066;51.560;4.642;2022-11-10T09:06:10;10.65;99.99
68251;DHT22;55066;51.560;4.642;2022-11-10T09:08:54;10.69;99.99
68251;DHT22;55066;51.560;4.642;2022-11-10T09:11:38;10.76;99.99
68251;DHT22;55066;51.560;4.642;2022-11-10T09:14:22;10.80;99.99
68251;DHT22;55066;51.560;4.642;2022-11-10T09:17:06;11.00;99.99
68251;DHT22;55066;51.560;4.642;2022-11-10T09:19:50;11.07;99.99
68251;DHT22;55066;51.560;4.642;2022-11-10T09:22:35;11.14;99.99
68251;DHT22;55066;51.560;4.642;2022-11-10T09:25:19;11.24;99.99
68251;DHT22;55066;51.560;4.642;2022-11-10T09:28:03;11.37;99.99
68251;DHT22;55066;51.560;4.642;2022-11-10T09:30:49;11.44;99.99
68251;DHT22;55066;51.560;4.642;2022-11-10T09:33:33;11.48;99.99
68251;DHT22;55066;51.560;4.642;2022-11-10T09:36:17;11.61;99.99
68251;DHT22;55066;51.560;4.642;2022-11-10T09:39:01;11.71;99.99
68251;DHT22;55066;51.560;4.642;2022-11-10T09:41:45;11.79;99.99
68251;DHT22;55066;51.560;4.642;2022-11-10T09:44:34;12.02;99.99
68251;DHT22;55066;51.560;4.642;2022-11-10T09:47:24;12.00;99.35
68251;DHT22;55066;51.560;4.642;2022-11-10T09:50:16;12.07;98.82
68251;DHT22;55066;51.560;4.642;2022-11-10T09:53:03;12.19;98.82
68251;DHT22;55066;51.560;4.642;2022-11-10T09:55:57;12.23;98.76
68251;DHT22;55066;51.560;4.642;2022-11-10T09:58:45;12.33;99.00
68251;DHT22;55066;51.560;4.642;2022-11-10T10:01:59;12.30;97.59
68251;DHT22;55066;51.560;4.642;2022-11-10T10:08:01;12.53;97.22
68251;DHT22;55066;51.560;4.642;2022-11-10T10:20:27;13.15;96.12
68251;DHT22;55066;51.560;4.642;2022-11-10T10:23:27;13.30;94.60
68251;DHT22;55066;51.560;4.642;2022-11-10T10:26:15;13.39;95.13
68251;DHT22;55066;51.560;4.642;2022-11-10T10:29:07;13.30;94.00
68251;DHT22;55066;51.560;4.642;2022-11-10T10:31:52;13.33;94.52
68251;DHT22;55066;51.560;4.642;2022-11-10T10:34:36;13.24;95.20
68251;DHT22;55066;51.560;4.642;2022-11-10T10:37:26;13.53;95.09
68251;DHT22;55066;51.560;4.642;2022-11-10T10:40:15;13.63;94.38
68251;DHT22;55066;51.560;4.642;2022-11-10T10:43:02;13.65;93.52
68251;DHT22;55066;51.560;4.642;2022-11-10T10:46:08;13.63;94.34
68251;DHT22;55066;51.560;4.642;2022-11-10T10:49:24;13.77;94.62
68251;DHT22;55066;51.560;4.642;2022-11-10T10:52:16;13.82;94.40
68251;DHT22;55066;51.560;4.642;2022-11-10T10:55:11;13.88;94.24
68251;DHT22;55066;51.560;4.642;2022-11-10T10:58:01;13.81;93.87
68251;DHT22;55066;51.560;4.642;2022-11-10T11:00:52;13.91;93.46
68251;DHT22;55066;51.560;4.642;2022-11-10T11:03:42;14.04;93.07
68251;DHT22;55066;51.560;4.642;2022-11-10T11:06:33;14.26;92.67
68251;DHT22;55066;51.560;4.642;2022-11-10T11:09:22;14.11;92.58
68251;DHT22;55066;51.560;4.642;2022-11-10T11:18:11;14.04;92.53
68251;DHT22;55066;51.560;4.642;2022-11-10T11:21:26;14.01;92.32
68251;DHT22;55066;51.560;4.642;2022-11-10T11:24:30;14.01;92.57
68251;DHT22;55066;51.560;4.642;2022-11-10T11:28:01;13.95;92.18
68251;DHT22;55066;51.560;4.642;2022-11-10T11:31:02;14.05;91.82
68251;DHT22;55066;51.560;4.642;2022-11-10T11:34:04;14.19;91.60
68251;DHT22;55066;51.560;4.642;2022-11-10T11:49:31;14.40;91.56
68251;DHT22;55066;51.560;4.642;2022-11-10T11:55:32;14.22;91.18
68251;DHT22;55066;51.560;4.642;2022-11-10T11:58:31;14.13;91.83
68251;DHT22;55066;51.560;4.642;2022-11-10T12:01:37;14.16;91.44
68251;DHT22;55066;51.560;4.642;2022-11-10T12:07:37;14.23;91.28
68251;DHT22;55066;51.560;4.642;2022-11-10T12:14:41;14.73;90.46
68251;DHT22;55066;51.560;4.642;2022-11-10T12:17:26;14.73;90.18
68251;DHT22;55066;51.560;4.642;2022-11-10T12:20:33;14.71;89.80
68251;DHT22;55066;51.560;4.642;2022-11-10T12:26:48;14.83;89.09
68251;DHT22;55066;51.560;4.642;2022-11-10T12:29:43;14.78;89.55
68251;DHT22;55066;51.560;4.642;2022-11-10T12:32:36;14.80;89.47
68251;DHT22;55066;51.560;4.642;2022-11-10T12:35:30;14.81;89.31
68251;DHT22;55066;51.560;4.642;2022-11-10T12:38:22;14.84;88.89
68251;DHT22;55066;51.560;4.642;2022-11-10T12:41:17;14.87;89.04
68251;DHT22;55066;51.560;4.642;2022-11-10T12:44:20;14.96;88.55
68251;DHT22;55066;51.560;4.642;2022-11-10T12:47:11;14.96;88.12
68251;DHT22;55066;51.560;4.642;2022-11-10T12:53:26;14.92;87.85
68251;DHT22;55066;51.560;4.642;2022-11-10T12:56:42;14.91;87.96
68251;DHT22;55066;51.560;4.642;2022-11-10T12:59:33;15.11;88.13
68251;DHT22;55066;51.560;4.642;2022-11-10T13:08:18;15.12;87.74
68251;DHT22;55066;51.560;4.642;2022-11-10T13:11:05;15.11;87.64
68251;DHT22;55066;51.560;4.642;2022-11-10T13:13:57;15.12;87.59
68251;DHT22;55066;51.560;4.642;2022-11-10T13:22:27;15.26;87.43
68251;DHT22;55066;51.560;4.642;2022-11-10T13:46:01;15.18;86.54
68251;DHT22;55066;51.560;4.642;2022-11-10T13:49:03;15.18;87.24
68251;DHT22;55066;51.560;4.642;2022-11-10T13:58:04;14.98;87.21
68251;DHT22;55066;51.560;4.642;2022-11-10T14:04:03;14.95;87.71
68251;DHT22;55066;51.560;4.642;2022-11-10T14:06:49;14.92;87.13
68251;DHT22;55066;51.560;4.642;2022-11-10T14:09:40;14.95;87.55
68251;DHT22;55066;51.560;4.642;2022-11-10T14:12:29;14.84;87.92
68251;DHT22;55066;51.560;4.642;2022-11-10T14:15:20;14.78;88.31
68251;DHT22;55066;51.560;4.642;2022-11-10T14:18:19;14.78;88.83
68251;DHT22;55066;51.560;4.642;2022-11-10T14:21:04;14.78;88.92
68251;DHT22;55066;51.560;4.642;2022-11-10T14:23:59;14.68;88.19
68251;DHT22;55066;51.560;4.642;2022-11-10T14:26:49;14.71;88.33
68251;DHT22;55066;51.560;4.642;2022-11-10T14:29:39;14.68;87.73
68251;DHT22;55066;51.560;4.642;2022-11-10T14:32:23;14.60;87.42
68251;DHT22;55066;51.560;4.642;2022-11-10T14:35:19;14.47;87.72
68251;DHT22;55066;51.560;4.642;2022-11-10T14:38:05;14.39;87.70
68251;DHT22;55066;51.560;4.642;2022-11-10T14:40:52;14.32;88.24
68251;DHT22;55066;51.560;4.642;2022-11-10T14:43:38;14.19;87.76
68251;DHT22;55066;51.560;4.642;2022-11-10T14:46:23;14.11;86.73
68251;DHT22;55066;51.560;4.642;2022-11-10T14:49:09;14.01;88.66
68251;DHT22;55066;51.560;4.642;2022-11-10T14:51:56;13.92;87.93
68251;DHT22;55066;51.560;4.642;2022-11-10T14:54:43;13.88;88.51
68251;DHT22;55066;51.560;4.642;2022-11-10T14:57:28;13.79;87.75
68251;DHT22;55066;51.560;4.642;2022-11-10T15:00:15;13.70;88.11
68251;DHT22;55066;51.560;4.642;2022-11-10T15:03:00;13.58;88.10
68251;DHT22;55066;51.560;4.642;2022-11-10T15:05:47;13.58;89.63
68251;DHT22;55066;51.560;4.642;2022-11-10T15:08:31;13.56;88.96
68251;DHT22;55066;51.560;4.642;2022-11-10T15:11:39;13.46;90.00
68251;DHT22;55066;51.560;4.642;2022-11-10T15:14:39;13.29;90.44
68251;DHT22;55066;51.560;4.642;2022-11-10T15:17:43;13.23;90.10
68251;DHT22;55066;51.560;4.642;2022-11-10T15:20:37;13.20;90.28
68251;DHT22;55066;51.560;4.642;2022-11-10T15:23:28;13.10;90.41
68251;DHT22;55066;51.560;4.642;2022-11-10T15:26:20;12.96;91.38
68251;DHT22;55066;51.560;4.642;2022-11-10T15:29:05;12.89;91.42
68251;DHT22;55066;51.560;4.642;2022-11-10T15:31:50;12.81;92.55
68251;DHT22;55066;51.560;4.642;2022-11-10T15:34:41;12.72;92.92
68251;DHT22;55066;51.560;4.642;2022-11-10T15:37:27;12.68;92.86
68251;DHT22;55066;51.560;4.642;2022-11-10T15:46:14;12.53;92.85
68251;DHT22;55066;51.560;4.642;2022-11-10T15:48:59;12.44;93.99
68251;DHT22;55066;51.560;4.642;2022-11-10T15:51:43;12.40;93.52
68251;DHT22;55066;51.560;4.642;2022-11-10T15:54:32;12.34;93.65
68251;DHT22;55066;51.560;4.642;2022-11-10T15:57:18;12.24;93.93
68251;DHT22;55066;51.560;4.642;2022-11-10T16:00:10;12.15;94.58
68251;DHT22;55066;51.560;4.642;2022-11-10T16:02:54;12.02;94.73
68251;DHT22;55066;51.560;4.642;2022-11-10T16:05:42;12.05;94.51
68251;DHT22;55066;51.560;4.642;2022-11-10T16:08:25;11.92;94.59
68251;DHT22;55066;51.560;4.642;2022-11-10T16:11:15;11.93;95.46
68251;DHT22;55066;51.560;4.642;2022-11-10T16:14:04;11.89;95.19
68251;DHT22;55066;51.560;4.642;2022-11-10T16:16:48;11.78;95.22
68251;DHT22;55066;51.560;4.642;2022-11-10T16:19:32;11.74;95.37
68251;DHT22;55066;51.560;4.642;2022-11-10T16:22:16;11.72;95.35
68251;DHT22;55066;51.560;4.642;2022-11-10T16:25:00;11.74;96.26
68251;DHT22;55066;51.560;4.642;2022-11-10T16:27:43;11.65;95.76
68251;DHT22;55066;51.560;4.642;2022-11-10T16:30:39;11.69;95.71
68251;DHT22;55066;51.560;4.642;2022-11-10T16:33:32;11.72;95.35
68251;DHT22;55066;51.560;4.642;2022-11-10T16:36:23;11.64;95.62
68251;DHT22;55066;51.560;4.642;2022-11-10T16:39:17;11.52;95.78
68251;DHT22;55066;51.560;4.642;2022-11-10T16:42:01;11.42;96.14
68251;DHT22;55066;51.560;4.642;2022-11-10T16:44:49;11.38;96.75
68251;DHT22;55066;51.560;4.642;2022-11-10T16:47:40;11.26;97.09
68251;DHT22;55066;51.560;4.642;2022-11-10T16:50:33;11.26;96.97
68251;DHT22;55066;51.560;4.642;2022-11-10T16:53:21;11.26;96.91
68251;DHT22;55066;51.560;4.642;2022-11-10T16:56:14;11.27;96.75
68251;DHT22;55066;51.560;4.642;2022-11-10T16:58:58;11.22;97.02
68251;DHT22;55066;51.560;4.642;2022-11-10T17:01:43;11.10;97.36
68251;DHT22;55066;51.560;4.642;2022-11-10T17:04:28;11.13;97.46
68251;DHT22;55066;51.560;4.642;2022-11-10T17:07:12;11.17;97.47
68251;DHT22;55066;51.560;4.642;2022-11-10T17:09:58;11.17;97.30
68251;DHT22;55066;51.560;4.642;2022-11-10T17:12:46;11.19;97.55
68251;DHT22;55066;51.560;4.642;2022-11-10T17:15:30;11.20;97.69
68251;DHT22;55066;51.560;4.642;2022-11-10T17:18:17;11.12;98.01
68251;DHT22;55066;51.560;4.642;2022-11-10T17:21:04;11.10;98.33
68251;DHT22;55066;51.560;4.642;2022-11-10T17:23:49;11.24;98.02
68251;DHT22;55066;51.560;4.642;2022-11-10T17:26:37;11.30;97.94
68251;DHT22;55066;51.560;4.642;2022-11-10T17:29:21;11.24;98.17
68251;DHT22;55066;51.560;4.642;2022-11-10T17:32:06;11.27;98.39
68251;DHT22;55066;51.560;4.642;2022-11-10T17:34:50;11.23;98.37
68251;DHT22;55066;51.560;4.642;2022-11-10T17:37:35;11.24;98.73
68251;DHT22;55066;51.560;4.642;2022-11-10T17:40:24;11.14;98.80
68251;DHT22;55066;51.560;4.642;2022-11-10T17:43:12;11.35;98.56
68251;DHT22;55066;51.560;4.642;2022-11-10T17:45:59;11.28;98.43
68251;DHT22;55066;51.560;4.642;2022-11-10T17:48:43;11.22;98.64
68251;DHT22;55066;51.560;4.642;2022-11-10T17:51:31;11.19;98.96
68251;DHT22;55066;51.560;4.642;2022-11-10T17:54:44;11.33;98.45
68251;DHT22;55066;51.560;4.642;2022-11-10T17:57:29;11.34;98.38
68251;DHT22;55066;51.560;4.642;2022-11-10T18:00:14;11.31;98.08
68251;DHT22;55066;51.560;4.642;2022-11-10T18:03:04;11.33;98.13
68251;DHT22;55066;51.560;4.642;2022-11-10T18:05:51;11.44;97.78
68251;DHT22;55066;51.560;4.642;2022-11-10T18:08:35;11.50;97.66
68251;DHT22;55066;51.560;4.642;2022-11-10T18:11:20;11.37;97.97
68251;DHT22;55066;51.560;4.642;2022-11-10T18:14:12;11.26;98.24
68251;DHT22;55066;51.560;4.642;2022-11-10T18:17:16;11.24;98.33
68251;DHT22;55066;51.560;4.642;2022-11-10T18:20:03;11.24;98.18
68251;DHT22;55066;51.560;4.642;2022-11-10T18:22:50;11.07;98.53
68251;DHT22;55066;51.560;4.642;2022-11-10T18:25:41;10.92;99.12
68251;DHT22;55066;51.560;4.642;2022-11-10T18:32:19;10.97;99.06
68251;DHT22;55066;51.560;4.642;2022-11-10T18:35:11;10.88;99.60
68251;DHT22;55066;51.560;4.642;2022-11-10T18:38:00;10.82;99.65
68251;DHT22;55066;51.560;4.642;2022-11-10T18:40:50;10.79;99.65
68251;DHT22;55066;51.560;4.642;2022-11-10T18:43:48;10.72;99.90
68251;DHT22;55066;51.560;4.642;2022-11-10T18:46:51;10.57;99.99
68251;DHT22;55066;51.560;4.642;2022-11-10T18:49:44;10.57;99.99
68251;DHT22;55066;51.560;4.642;2022-11-10T18:52:28;10.59;99.99
68251;DHT22;55066;51.560;4.642;2022-11-10T18:55:16;10.52;99.99
68251;DHT22;55066;51.560;4.642;2022-11-10T18:58:09;10.48;99.99
68251;DHT22;55066;51.560;4.642;2022-11-10T19:01:12;10.55;99.99
68251;DHT22;55066;51.560;4.642;2022-11-10T19:03:58;10.54;99.99
68251;DHT22;55066;51.560;4.642;2022-11-10T19:06:48;10.49;99.99
68251;DHT22;55066;51.560;4.642;2022-11-10T19:09:41;10.49;99.99
68251;DHT22;55066;51.560;4.642;2022-11-10T19:12:25;10.54;99.99
68251;DHT22;55066;51.560;4.642;2022-11-10T19:15:25;10.40;99.99
68251;DHT22;55066;51.560;4.642;2022-11-10T19:18:15;10.38;99.99
68251;DHT22;55066;51.560;4.642;2022-11-10T19:21:15;10.30;99.99
68251;DHT22;55066;51.560;4.642;2022-11-10T19:23:59;10.38;99.99
68251;DHT22;55066;51.560;4.642;2022-11-10T19:26:43;10.51;99.99
68251;DHT22;55066;51.560;4.642;2022-11-10T19:29:27;10.38;99.99
68251;DHT22;55066;51.560;4.642;2022-11-10T19:32:12;10.36;99.99